Wednesday, July 29, 2015, 1:48 AM CDT
Back to Local

KHDC, Hammond, Hammond Municipal Airport

Location: Hammond, LA, United States Lat: 30.521
Local Time: 1:48 AM CDT ( 6:48 GMT) Lon: -90.418
Time Zone: US/Central Elev: 42 ft

Show me the last for .
Show Coded

Time T Td Feel RH Dir Speed Gust Alt SLP Vis Weather Sky Remarks
2015-07-29 01:35 82 73 89 74 220° 3 - 30.01 - 10 CLR None
2015-07-29 01:15 82 73 89 74 - Calm - 30.02 - 10 CLR None
2015-07-29 00:35 81 73 86 78 - Calm - 30.02 - 10 CLR None
2015-07-29 00:15 81 73 86 78 - Calm - 30.02 - 10 CLR None
2015-07-28 23:55 81 72 85 74 - Calm - 30.02 - 10 CLR None
2015-07-28 23:35 81 73 86 78 - Calm - 30.02 - 10 CLR None
2015-07-28 23:15 82 72 88 69 - Calm - 30.02 - 10 CLR None
2015-07-28 22:55 82 72 88 69 - Calm - 30.02 - 10 CLR None
2015-07-28 22:35 82 72 88 69 - Calm - 30.01 - 10 CLR None
2015-07-28 22:15 82 72 88 69 - Calm - 30.01 - 10 CLR None
2015-07-28 21:55 82 72 88 69 - Calm - 30.00 - 10 CLR None
2015-07-28 21:35 82 72 88 69 - Calm - 29.99 - 10 CLR None
2015-07-28 20:55 84 70 89 62 - Calm - 29.98 - 10 CLR None
2015-07-28 20:35 84 70 89 62 - Calm - 29.98 - 10 SCT120 None
2015-07-28 20:15 88 70 93 55 - Calm - 29.97 - 10 CLR None
2015-07-28 19:35 90 68 94 49 - Calm - 29.97 - 10 SCT100 None
2015-07-28 19:15 91 68 97 46 - Calm - 29.97 - 10 SCT100 None
2015-07-28 18:55 91 66 96 43 150° 3 - 29.97 - 10 SCT110 None
2015-07-28 18:35 93 66 98 41 140° 5 - 29.96 - 10 CLR None
2015-07-28 18:15 95 63 - 34 160° 3 - 29.96 - 10 CLR None
2015-07-28 17:55 97 61 - 30 140° 5 - 29.96 - 10 CLR None
2015-07-28 17:35 97 61 - 30 - Calm - 29.97 - 10 SCT060 None
2015-07-28 17:15 97 61 - 30 210° 5 - 29.97 - 10 SCT060 None
2015-07-28 16:35 99 61 - 29 - Calm - 29.98 - 10 OVC060 None
2015-07-28 16:15 99 63 - 30 150° 6 - 29.99 - 10 BKN060 OVC070 None
2015-07-28 15:55 97 61 - 30 - Calm - 29.99 - 10 BKN055 OVC070 None
2015-07-28 15:35 99 63 - 30 190° 5 - 29.99 - 10 SCT055 BKN070 None
2015-07-28 15:15 99 63 - 30 210° 6 - 30.00 - 10 SCT055 SCT075 None
2015-07-28 14:55 95 64 - 36 200° 3 - 30.00 - 10 BKN055 BKN075 None
2015-07-28 14:35 99 63 - 30 150° 7 - 30.00 - 10 SCT055 None
2015-07-28 14:15 97 61 - 30 220° 6 - 30.01 - 10 SCT055 SCT070 SCT095 None
2015-07-28 13:55 97 63 - 32 180° 6 - 30.02 - 10 BKN055 BKN080 BKN110 None
2015-07-28 13:35 97 63 - 32 180° 6 - 30.02 - 10 SCT080 None
2015-07-28 13:15 97 63 - 32 180° 5 - 30.02 - 10 SCT049 None
2015-07-28 12:55 93 64 - 38 180° 7 16 30.02 - 10 BKN049 None
2015-07-28 12:35 97 66 - 37 - Calm - 30.02 - 10 SCT049 SCT060 None
2015-07-28 12:15 95 64 - 36 220° 6 - 30.03 - 10 SCT049 SCT060 None
2015-07-28 11:55 95 66 - 39 - Calm - 30.03 - 10 CLR None
2015-07-28 11:35 95 64 - 36 - Calm - 30.03 - 10 CLR None
2015-07-28 11:15 95 66 - 39 170° 3 - 30.04 - 10 CLR None
2015-07-28 10:55 93 66 98 41 - Calm - 30.04 - 10 CLR None
2015-07-28 10:35 93 68 99 44 230° 5 - 30.04 - 10 CLR None
2015-07-28 10:15 91 70 98 49 - Calm - 30.04 - 10 CLR None
2015-07-28 09:55 91 70 98 49 310° 3 - 30.04 - 10 CLR None
2015-07-28 09:35 90 73 99 59 - Calm - 30.05 - 10 CLR None
2015-07-28 09:15 88 73 96 62 - Calm - 30.04 - 10 CLR None
2015-07-28 08:55 86 73 94 66 - Calm - 30.04 - 10 CLR None
2015-07-28 08:35 84 73 91 70 - Calm - 30.04 - 10 CLR None
2015-07-28 08:15 82 73 89 74 - Calm - 30.03 - 10 CLR None
2015-07-28 07:55 81 73 86 78 - Calm - 30.03 - 10 CLR None
2015-07-28 07:35 79 73 84 83 - Calm - 30.03 - 10 CLR None
2015-07-28 07:15 77 72 81 83 - Calm - 30.02 - 10 CLR None
2015-07-28 06:55 75 72 79 88 - Calm - 30.02 - 7 CLR None
2015-07-28 06:35 73 70 77 88 - Calm - 30.01 - 7 CLR None
2015-07-28 06:15 73 70 77 88 - Calm - 30.00 - 10 CLR None
2015-07-28 05:55 73 70 77 88 - Calm - 30.00 - 10 CLR None
2015-07-28 05:35 73 70 77 88 - Calm - 29.99 - 10 CLR None
2015-07-28 05:15 75 72 79 88 - Calm - 29.99 - 10 CLR None
2015-07-28 04:55 75 72 79 88 - Calm - 29.98 - 10 CLR None
2015-07-28 04:35 73 70 77 88 - Calm - 29.98 - 7 CLR None
2015-07-28 04:15 75 72 79 88 - Calm - 29.98 - 10 CLR None
2015-07-28 03:35 77 72 81 83 - Calm - 29.98 - 10 CLR None
2015-07-28 03:15 77 72 81 83 - Calm - 29.98 - 10 CLR None
2015-07-28 02:55 77 72 81 83 - Calm - 29.99 - 10 CLR None
2015-07-28 02:35 77 72 81 83 - Calm - 29.99 - 10 CLR None
2015-07-28 02:15 77 72 81 83 - Calm - 30.00 - 10 CLR None
2015-07-28 01:55 77 72 81 83 - Calm - 30.00 - 10 CLR None

Support USWX by starting your Amazon purchase here.